createdAt,value
2023-04-30T00:01:49.770Z,8.90
2023-04-30T00:04:22.121Z,8.43
2023-04-30T00:06:56.060Z,8.93
2023-04-30T00:09:28.315Z,9.13
2023-04-30T00:12:01.641Z,9.68
2023-04-30T00:14:33.958Z,9.30
2023-04-30T00:17:07.149Z,8.95
2023-04-30T00:19:39.457Z,9.30
2023-04-30T00:22:12.132Z,8.50
2023-04-30T00:24:44.744Z,9.05
2023-04-30T00:27:18.098Z,8.50
2023-04-30T00:29:50.625Z,8.48
2023-04-30T00:32:23.769Z,8.45
2023-04-30T00:34:56.300Z,8.48
2023-04-30T00:37:29.481Z,7.90
2023-04-30T00:40:01.863Z,9.45
2023-04-30T00:42:34.732Z,9.10
2023-04-30T00:45:08.227Z,9.02
2023-04-30T00:47:40.998Z,9.18
2023-04-30T00:50:16.690Z,9.18
2023-04-30T00:52:49.398Z,10.43
2023-04-30T00:55:22.065Z,9.35
2023-04-30T00:57:54.875Z,9.52
2023-04-30T01:00:28.437Z,9.50
2023-04-30T01:03:02.047Z,9.80
2023-04-30T01:05:34.407Z,9.38
2023-04-30T01:08:06.487Z,9.75
2023-04-30T01:10:52.250Z,9.02
2023-04-30T01:13:54.926Z,8.60
2023-04-30T01:16:32.703Z,8.32
2023-04-30T01:19:29.847Z,8.55
2023-04-30T01:22:05.459Z,7.85
2023-04-30T01:25:11.563Z,8.30
2023-04-30T01:28:17.557Z,7.18
2023-04-30T01:30:50.672Z,7.32
2023-04-30T01:33:27.139Z,6.45
2023-04-30T01:36:21.467Z,6.32
2023-04-30T01:39:13.917Z,5.22
2023-04-30T01:42:21.988Z,5.00
2023-04-30T01:45:09.568Z,6.10
2023-04-30T01:47:53.719Z,5.95
2023-04-30T01:50:53.522Z,6.28
2023-04-30T01:53:44.920Z,5.68
2023-04-30T01:56:29.354Z,6.43
2023-04-30T01:59:03.299Z,5.97
2023-04-30T02:01:37.020Z,5.80
2023-04-30T02:04:09.290Z,6.15
2023-04-30T02:06:42.059Z,5.82
2023-04-30T02:09:13.956Z,5.43
2023-04-30T02:11:46.923Z,5.38
2023-04-30T02:14:19.202Z,6.00
2023-04-30T02:16:52.737Z,5.57
2023-04-30T02:19:25.508Z,6.38
2023-04-30T02:21:59.924Z,5.97
2023-04-30T02:24:31.842Z,5.60
2023-04-30T02:27:04.980Z,6.05
2023-04-30T02:29:37.244Z,5.88
2023-04-30T02:32:10.386Z,5.28
2023-04-30T02:34:42.332Z,5.35
2023-04-30T02:37:15.325Z,5.93
2023-04-30T02:39:47.329Z,6.03
2023-04-30T02:42:20.440Z,6.60
2023-04-30T02:44:52.768Z,7.10
2023-04-30T02:47:25.191Z,7.22
2023-04-30T02:49:57.181Z,7.15
2023-04-30T02:52:30.055Z,7.20
2023-04-30T02:55:02.379Z,6.70
2023-04-30T02:57:34.254Z,6.85
2023-04-30T03:00:08.637Z,6.93
2023-04-30T03:02:41.520Z,6.85
2023-04-30T03:05:16.181Z,6.93
2023-04-30T03:07:48.078Z,7.20
2023-04-30T03:10:20.846Z,6.10
2023-04-30T03:12:54.077Z,6.90
2023-04-30T03:15:26.640Z,6.43
2023-04-30T03:17:58.574Z,6.22
2023-04-30T03:20:31.317Z,6.47
2023-04-30T03:23:04.236Z,6.50
2023-04-30T03:25:36.888Z,5.97
2023-04-30T03:28:09.177Z,6.70
2023-04-30T03:30:42.193Z,6.10
2023-04-30T03:33:14.667Z,6.78
2023-04-30T03:35:47.106Z,6.80
2023-04-30T03:38:20.219Z,7.70
2023-04-30T03:40:52.741Z,7.75
2023-04-30T03:43:25.826Z,8.02
2023-04-30T03:45:58.242Z,7.47
2023-04-30T03:48:31.326Z,7.35
2023-04-30T03:51:04.264Z,7.22
2023-04-30T03:53:36.311Z,7.70
2023-04-30T03:56:09.166Z,8.07
2023-04-30T03:58:41.032Z,7.97
2023-04-30T04:01:16.846Z,8.68
2023-04-30T04:03:49.003Z,8.05
2023-04-30T04:06:22.232Z,8.50
2023-04-30T04:08:54.808Z,8.60
2023-04-30T04:11:28.474Z,10.93
2023-04-30T04:14:02.137Z,9.82
2023-04-30T04:16:36.125Z,9.25
2023-04-30T04:19:08.955Z,7.95
2023-04-30T04:21:44.695Z,8.48
2023-04-30T04:24:20.452Z,8.60
2023-04-30T04:26:56.685Z,7.72
2023-04-30T04:29:29.787Z,8.38
2023-04-30T04:32:03.222Z,7.53
2023-04-30T04:34:38.399Z,7.50
2023-04-30T04:37:11.642Z,7.88
2023-04-30T04:39:45.083Z,7.40
2023-04-30T04:42:18.423Z,6.63
2023-04-30T04:44:51.249Z,7.53
2023-04-30T04:47:24.867Z,6.55
2023-04-30T04:49:56.888Z,6.00
2023-04-30T04:52:30.156Z,5.60
2023-04-30T04:55:02.539Z,5.78
2023-04-30T04:57:37.770Z,4.90
2023-04-30T05:00:11.729Z,4.68
2023-04-30T05:02:44.634Z,5.32
2023-04-30T05:05:17.056Z,4.10
2023-04-30T05:07:52.754Z,4.85
2023-04-30T05:10:24.685Z,4.47
2023-04-30T05:12:57.039Z,3.95
2023-04-30T05:15:30.209Z,4.20
2023-04-30T05:18:03.123Z,4.43
2023-04-30T05:20:53.511Z,3.80
2023-04-30T05:23:26.274Z,4.00
2023-04-30T05:25:58.124Z,4.47
2023-04-30T05:28:30.978Z,3.80
2023-04-30T05:31:02.918Z,4.18
2023-04-30T05:33:37.361Z,4.40
2023-04-30T05:36:10.344Z,4.03
2023-04-30T05:38:43.662Z,4.70
2023-04-30T05:41:17.031Z,3.80
2023-04-30T05:43:49.285Z,3.83
2023-04-30T05:46:22.412Z,3.35
2023-04-30T05:48:54.725Z,3.97
2023-04-30T05:51:28.324Z,3.92
2023-04-30T05:54:00.454Z,3.97
2023-04-30T05:56:33.216Z,3.80
2023-04-30T05:59:05.076Z,3.53
2023-04-30T06:01:37.842Z,3.40
2023-04-30T06:04:10.594Z,3.55
2023-04-30T06:09:36.019Z,3.85
2023-04-30T06:12:09.593Z,3.40
2023-04-30T06:14:45.737Z,3.70
2023-04-30T06:17:36.258Z,3.50
2023-04-30T06:20:10.032Z,3.20
2023-04-30T06:23:04.210Z,3.43
2023-04-30T06:25:36.469Z,2.95
2023-04-30T06:28:10.379Z,3.10
2023-04-30T06:30:42.658Z,3.30
2023-04-30T06:36:09.045Z,3.50
2023-04-30T06:38:41.612Z,3.58
2023-04-30T06:41:15.396Z,3.47
2023-04-30T06:43:47.674Z,3.22
2023-04-30T06:46:20.623Z,3.70
2023-04-30T06:48:52.965Z,3.40
2023-04-30T06:51:24.799Z,3.63
2023-04-30T06:53:57.929Z,3.10
2023-04-30T06:56:30.173Z,2.90
2023-04-30T06:59:02.932Z,3.70
2023-04-30T07:01:34.838Z,3.27
2023-04-30T07:04:07.945Z,2.95
2023-04-30T07:06:40.302Z,3.20
2023-04-30T07:09:13.327Z,3.97
2023-04-30T07:11:45.294Z,3.25
2023-04-30T07:14:17.626Z,3.33
2023-04-30T07:16:53.762Z,3.00
2023-04-30T07:19:27.356Z,3.33
2023-04-30T07:21:59.856Z,3.25
2023-04-30T07:24:34.127Z,2.75
2023-04-30T07:27:07.435Z,3.13
2023-04-30T07:29:40.197Z,3.17
2023-04-30T07:32:16.481Z,3.42
2023-04-30T07:34:49.048Z,2.90
2023-04-30T07:37:21.783Z,2.97
2023-04-30T07:39:54.738Z,2.80
2023-04-30T07:42:29.252Z,2.70
2023-04-30T07:45:01.176Z,3.08
2023-04-30T07:47:33.963Z,3.30
2023-04-30T07:50:06.821Z,3.10
2023-04-30T07:52:39.554Z,2.73
2023-04-30T07:55:12.238Z,3.05
2023-04-30T07:57:45.385Z,2.95
2023-04-30T08:00:17.777Z,2.85
2023-04-30T08:02:51.101Z,3.13
2023-04-30T08:05:23.546Z,2.90
2023-04-30T08:07:56.338Z,3.05
2023-04-30T08:10:30.566Z,2.53
2023-04-30T08:13:05.217Z,2.70
2023-04-30T08:15:38.980Z,2.45
2023-04-30T08:18:12.236Z,2.60
2023-04-30T08:20:44.587Z,3.33
2023-04-30T08:23:17.401Z,3.00
2023-04-30T08:25:50.341Z,2.97
2023-04-30T08:28:23.061Z,3.17
2023-04-30T08:30:55.846Z,2.73
2023-04-30T08:33:28.632Z,2.90
2023-04-30T08:36:00.590Z,2.95
2023-04-30T08:38:33.332Z,2.78
2023-04-30T08:41:14.073Z,3.03
2023-04-30T08:43:47.171Z,2.97
2023-04-30T08:49:16.686Z,2.85
2023-04-30T08:51:50.483Z,2.80
2023-04-30T08:54:24.600Z,2.85
2023-04-30T08:56:57.536Z,2.67
2023-04-30T08:59:29.438Z,2.88
2023-04-30T09:02:02.542Z,2.72
2023-04-30T09:04:34.878Z,2.80
2023-04-30T09:07:09.557Z,2.75
2023-04-30T09:12:36.142Z,2.78
2023-04-30T09:15:09.998Z,2.95
2023-04-30T09:17:42.320Z,2.70
2023-04-30T09:20:14.890Z,2.72
2023-04-30T09:22:46.783Z,2.40
2023-04-30T09:25:20.745Z,2.50
2023-04-30T09:28:11.772Z,2.45
2023-04-30T09:30:44.503Z,2.72
2023-04-30T09:33:16.521Z,2.90
2023-04-30T09:35:49.742Z,2.70
2023-04-30T09:38:34.017Z,2.70
2023-04-30T09:41:08.790Z,2.60
2023-04-30T09:43:45.572Z,2.97
2023-04-30T09:46:20.990Z,2.65
2023-04-30T09:49:00.247Z,2.63
2023-04-30T09:51:32.683Z,2.42
2023-04-30T09:57:03.705Z,2.70
2023-04-30T09:59:38.284Z,2.80
2023-04-30T10:02:10.825Z,2.70
2023-04-30T10:04:45.784Z,2.67
2023-04-30T10:07:22.546Z,2.80
2023-04-30T10:10:10.821Z,2.85
2023-04-30T10:12:56.639Z,2.50
2023-04-30T10:15:40.956Z,2.80
2023-04-30T10:18:33.115Z,2.60
2023-04-30T10:21:12.579Z,2.67
2023-04-30T10:23:45.238Z,2.78
2023-04-30T10:26:18.746Z,2.50
2023-04-30T10:28:51.927Z,2.73
2023-04-30T10:31:24.863Z,2.63
2023-04-30T10:34:11.374Z,2.83
2023-04-30T10:36:51.266Z,2.67
2023-04-30T10:39:27.447Z,2.90
2023-04-30T10:42:07.042Z,2.87
2023-04-30T10:44:39.722Z,3.00
2023-04-30T10:47:12.737Z,2.38
2023-04-30T10:49:49.656Z,2.42
2023-04-30T10:52:30.073Z,2.63
2023-04-30T10:55:07.438Z,2.60
2023-04-30T10:57:44.280Z,3.78
2023-04-30T11:00:28.872Z,3.10
2023-04-30T11:03:04.849Z,2.53
2023-04-30T11:05:39.072Z,2.53
2023-04-30T11:08:14.464Z,2.63
2023-04-30T11:11:01.623Z,2.65
2023-04-30T11:13:46.985Z,2.20
2023-04-30T11:16:20.218Z,2.95
2023-04-30T11:18:53.084Z,2.83
2023-04-30T11:21:26.433Z,2.57
2023-04-30T11:24:04.875Z,2.97
2023-04-30T11:27:06.060Z,2.63
2023-04-30T11:29:39.156Z,2.70
2023-04-30T11:32:11.565Z,3.10
2023-04-30T11:34:47.730Z,2.90
2023-04-30T11:37:38.162Z,2.63
2023-04-30T11:40:13.546Z,3.28
2023-04-30T11:42:46.927Z,2.45
2023-04-30T11:45:21.236Z,2.40
2023-04-30T11:47:55.099Z,2.80
2023-04-30T11:50:33.738Z,2.67
2023-04-30T11:53:06.154Z,2.80
2023-04-30T11:55:42.070Z,2.95
2023-04-30T11:58:14.468Z,3.60
2023-04-30T12:00:47.215Z,2.80
2023-04-30T12:03:19.694Z,3.25
2023-04-30T12:05:52.116Z,3.47
2023-04-30T12:08:24.706Z,3.70
2023-04-30T12:10:57.581Z,3.25
2023-04-30T12:13:32.037Z,3.73
2023-04-30T12:16:04.641Z,3.13
2023-04-30T12:18:36.646Z,3.03
2023-04-30T12:21:10.107Z,3.42
2023-04-30T12:23:42.435Z,3.30
2023-04-30T12:26:15.235Z,3.37
2023-04-30T12:28:49.686Z,3.25
2023-04-30T12:31:21.986Z,3.17
2023-04-30T12:33:55.569Z,3.00
2023-04-30T12:36:32.873Z,3.60
2023-04-30T12:39:10.082Z,2.90
2023-04-30T12:41:48.079Z,3.22
2023-04-30T12:44:26.070Z,4.18
2023-04-30T12:47:01.172Z,3.67
2023-04-30T12:49:36.498Z,3.40
2023-04-30T12:52:14.443Z,3.40
2023-04-30T12:54:46.420Z,3.42
2023-04-30T12:57:19.162Z,3.25
2023-04-30T12:59:58.750Z,3.40
2023-04-30T13:02:33.931Z,3.22
2023-04-30T13:05:06.416Z,3.03
2023-04-30T13:07:41.033Z,3.75
2023-04-30T13:10:13.714Z,3.47
2023-04-30T13:12:46.429Z,3.15
2023-04-30T13:15:18.594Z,3.40
2023-04-30T13:17:51.453Z,3.43
2023-04-30T13:20:24.923Z,3.40
2023-04-30T13:22:57.479Z,3.45
2023-04-30T13:25:29.947Z,3.30
2023-04-30T13:28:02.671Z,3.10
2023-04-30T13:30:35.208Z,3.33
2023-04-30T13:33:07.938Z,3.25
2023-04-30T13:35:40.340Z,3.20
2023-04-30T13:38:13.154Z,3.58
2023-04-30T13:40:45.499Z,3.28
2023-04-30T13:43:17.767Z,3.30
2023-04-30T13:45:49.663Z,3.58
2023-04-30T13:48:22.407Z,3.60
2023-04-30T13:50:55.126Z,3.70
2023-04-30T13:53:27.811Z,3.20
2023-04-30T13:55:59.695Z,3.43
2023-04-30T13:58:32.379Z,3.50
2023-04-30T14:01:05.007Z,3.47
2023-04-30T14:03:38.020Z,3.83
2023-04-30T14:06:10.814Z,3.50
2023-04-30T14:08:43.133Z,3.70
2023-04-30T14:11:15.675Z,3.88
2023-04-30T14:13:48.338Z,3.63
2023-04-30T14:16:20.930Z,3.33
2023-04-30T14:18:53.698Z,3.60
2023-04-30T14:21:27.439Z,3.50
2023-04-30T14:24:00.302Z,3.50
2023-04-30T14:26:32.651Z,3.80
2023-04-30T14:29:05.383Z,3.50
2023-04-30T14:31:37.796Z,3.83
2023-04-30T14:34:10.572Z,3.73
2023-04-30T14:36:42.482Z,4.45
2023-04-30T14:39:14.837Z,3.70
2023-04-30T14:41:47.132Z,3.40
2023-04-30T14:44:19.801Z,3.13
2023-04-30T14:46:52.589Z,3.57
2023-04-30T14:49:24.860Z,3.72
2023-04-30T14:51:57.500Z,3.88
2023-04-30T14:54:30.239Z,3.60
2023-04-30T14:57:03.440Z,3.70
2023-04-30T14:59:36.593Z,3.60
2023-04-30T15:02:09.392Z,3.30
2023-04-30T15:04:46.369Z,3.65
2023-04-30T15:07:19.617Z,3.58
2023-04-30T15:09:52.629Z,3.78
2023-04-30T15:12:24.847Z,4.40
2023-04-30T15:14:57.664Z,3.70
2023-04-30T15:17:30.353Z,4.07
2023-04-30T15:20:04.311Z,3.60
2023-04-30T15:22:36.242Z,3.30
2023-04-30T15:25:09.261Z,3.60
2023-04-30T15:27:41.643Z,4.10
2023-04-30T15:30:14.371Z,3.17
2023-04-30T15:32:48.784Z,3.60
2023-04-30T15:35:22.974Z,3.22
2023-04-30T15:37:54.871Z,2.80
2023-04-30T15:40:27.158Z,3.20
2023-04-30T15:42:59.106Z,3.40
2023-04-30T15:45:33.937Z,3.53
2023-04-30T15:48:06.122Z,3.20
2023-04-30T15:50:38.448Z,3.30
2023-04-30T15:53:10.737Z,3.40
2023-04-30T15:55:43.546Z,3.00
2023-04-30T15:58:16.184Z,3.17
2023-04-30T16:00:49.211Z,3.35
2023-04-30T16:03:21.272Z,3.03
2023-04-30T16:05:54.356Z,3.35
2023-04-30T16:08:26.540Z,3.17
2023-04-30T16:11:01.580Z,3.20
2023-04-30T16:13:33.499Z,3.28
2023-04-30T16:16:08.949Z,3.33
2023-04-30T16:18:41.698Z,3.00
2023-04-30T16:21:14.393Z,3.25
2023-04-30T16:23:50.372Z,3.20
2023-04-30T16:26:23.058Z,3.72
2023-04-30T16:28:55.499Z,3.40
2023-04-30T16:31:28.550Z,3.47
2023-04-30T16:34:01.061Z,3.38
2023-04-30T16:36:33.790Z,3.17
2023-04-30T16:39:05.957Z,3.75
2023-04-30T16:41:38.337Z,3.10
2023-04-30T16:44:11.247Z,3.10
2023-04-30T16:46:44.012Z,3.22
2023-04-30T16:49:16.573Z,3.40
2023-04-30T16:51:48.868Z,3.72
2023-04-30T16:54:21.129Z,3.50
2023-04-30T16:56:53.909Z,3.20
2023-04-30T16:59:26.967Z,3.70
2023-04-30T17:02:01.092Z,3.25
2023-04-30T17:04:33.536Z,3.60
2023-04-30T17:07:05.969Z,3.47
2023-04-30T17:09:38.230Z,3.85
2023-04-30T17:12:11.236Z,3.40
2023-04-30T17:14:43.511Z,3.30
2023-04-30T17:17:16.359Z,3.90
2023-04-30T17:19:48.705Z,3.67
2023-04-30T17:22:21.381Z,3.50
2023-04-30T17:24:53.286Z,3.70
2023-04-30T17:27:27.459Z,3.50
2023-04-30T17:29:59.424Z,3.20
2023-04-30T17:32:32.161Z,3.50
2023-04-30T17:35:06.632Z,3.95
2023-04-30T17:37:39.318Z,3.60
2023-04-30T17:40:11.902Z,3.40
2023-04-30T17:42:44.599Z,3.75
2023-04-30T17:45:16.476Z,4.03
2023-04-30T17:47:49.588Z,3.47
2023-04-30T17:50:21.980Z,3.78
2023-04-30T17:52:54.406Z,3.47
2023-04-30T17:55:26.298Z,4.03
2023-04-30T17:58:01.856Z,3.17
2023-04-30T18:00:34.292Z,3.38
2023-04-30T18:03:07.064Z,3.40
2023-04-30T18:05:39.927Z,3.30
2023-04-30T18:08:11.796Z,3.47
2023-04-30T18:10:44.779Z,3.67
2023-04-30T18:13:17.404Z,3.45
2023-04-30T18:15:50.118Z,3.40
2023-04-30T18:18:22.087Z,3.45
2023-04-30T18:20:54.651Z,3.42
2023-04-30T18:23:26.724Z,3.47
2023-04-30T18:25:58.933Z,3.63
2023-04-30T18:28:30.912Z,3.47
2023-04-30T18:31:03.850Z,3.50
2023-04-30T18:33:36.276Z,3.53
2023-04-30T18:36:09.348Z,3.80
2023-04-30T18:38:41.641Z,3.50
2023-04-30T18:41:14.620Z,3.50
2023-04-30T18:43:46.869Z,3.70
2023-04-30T18:46:20.031Z,3.30
2023-04-30T18:48:52.088Z,3.70
2023-04-30T18:51:25.255Z,3.60
2023-04-30T18:53:57.247Z,3.70
2023-04-30T18:56:29.901Z,4.00
2023-04-30T18:59:02.581Z,3.72
2023-04-30T19:01:35.591Z,3.60
2023-04-30T19:04:09.209Z,4.00
2023-04-30T19:06:42.758Z,3.88
2023-04-30T19:09:15.496Z,4.00
2023-04-30T19:11:49.367Z,3.92
2023-04-30T19:14:21.256Z,4.27
2023-04-30T19:16:54.244Z,4.35
2023-04-30T19:19:26.742Z,4.43
2023-04-30T19:21:59.372Z,4.10
2023-04-30T19:24:31.792Z,3.97
2023-04-30T19:27:04.357Z,4.10
2023-04-30T19:29:39.133Z,3.88
2023-04-30T19:32:12.000Z,4.18
2023-04-30T19:34:45.551Z,3.92
2023-04-30T19:37:18.190Z,4.07
2023-04-30T19:39:50.414Z,4.13
2023-04-30T19:42:22.950Z,4.10
2023-04-30T19:44:55.534Z,4.10
2023-04-30T19:47:27.869Z,3.80
2023-04-30T19:50:00.976Z,4.25
2023-04-30T19:52:32.826Z,4.30
2023-04-30T19:55:05.735Z,4.82
2023-04-30T19:57:38.045Z,3.97
2023-04-30T20:00:13.160Z,4.60
2023-04-30T20:02:45.059Z,3.80
2023-04-30T20:05:18.033Z,4.30
2023-04-30T20:07:50.335Z,3.70
2023-04-30T20:10:23.369Z,4.50
2023-04-30T20:12:55.696Z,4.70
2023-04-30T20:15:28.315Z,4.07
2023-04-30T20:18:05.708Z,4.60
2023-04-30T20:20:38.689Z,3.97
2023-04-30T20:23:16.090Z,4.43
2023-04-30T20:25:50.320Z,4.80
2023-04-30T20:28:22.255Z,4.80
2023-04-30T20:30:56.140Z,4.33
2023-04-30T20:33:30.637Z,5.30
2023-04-30T20:36:03.414Z,4.65
2023-04-30T20:38:35.721Z,4.30
2023-04-30T20:41:08.629Z,5.20
2023-04-30T20:43:41.472Z,5.38
2023-04-30T20:46:14.766Z,5.10
2023-04-30T20:48:47.015Z,4.97
2023-04-30T20:51:19.292Z,5.20
2023-04-30T20:53:51.842Z,5.55
2023-04-30T20:56:24.260Z,5.23
2023-04-30T20:58:57.141Z,4.97
2023-04-30T21:01:29.131Z,5.47
2023-04-30T21:04:02.594Z,5.00
2023-04-30T21:06:34.581Z,5.32
2023-04-30T21:09:07.621Z,11.97
2023-04-30T21:11:40.372Z,5.18
2023-04-30T21:14:12.958Z,5.15
2023-04-30T21:16:45.027Z,4.93
2023-04-30T21:19:18.006Z,5.03
2023-04-30T21:21:50.302Z,5.00
2023-04-30T21:24:23.030Z,4.82
2023-04-30T21:26:54.976Z,5.03
2023-04-30T21:29:27.576Z,4.93
2023-04-30T21:31:59.450Z,5.43
2023-04-30T21:34:33.046Z,5.60
2023-04-30T21:37:04.945Z,4.60
2023-04-30T21:39:37.448Z,4.40
2023-04-30T21:42:09.353Z,4.55
2023-04-30T21:44:42.286Z,4.60
2023-04-30T21:47:16.490Z,4.72
2023-04-30T21:49:48.991Z,4.80
2023-04-30T21:52:21.231Z,5.13
2023-04-30T21:54:54.161Z,4.90
2023-04-30T21:57:26.389Z,4.78
2023-04-30T22:00:00.335Z,4.78
2023-04-30T22:02:33.095Z,4.63
2023-04-30T22:05:06.713Z,4.68
2023-04-30T22:07:39.680Z,5.43
2023-04-30T22:10:15.101Z,4.82
2023-04-30T22:12:47.924Z,5.10
2023-04-30T22:15:20.802Z,5.38
2023-04-30T22:17:53.115Z,5.53
2023-04-30T22:20:26.254Z,4.63
2023-04-30T22:22:58.578Z,5.15
2023-04-30T22:25:31.120Z,4.65
2023-04-30T22:28:03.430Z,4.97
2023-04-30T22:30:36.905Z,5.60
2023-04-30T22:33:09.366Z,5.60
2023-04-30T22:35:42.424Z,5.30
2023-04-30T22:38:14.703Z,4.87
2023-04-30T22:40:46.944Z,5.00
2023-04-30T22:43:19.609Z,4.20
2023-04-30T22:45:51.615Z,4.88
2023-04-30T22:48:24.636Z,4.55
2023-04-30T22:50:58.575Z,5.22
2023-04-30T22:53:31.685Z,4.95
2023-04-30T22:56:04.092Z,5.55
2023-04-30T22:58:37.082Z,6.18
2023-04-30T23:01:09.514Z,5.38
2023-04-30T23:03:42.561Z,5.07
2023-04-30T23:06:14.885Z,5.15
2023-04-30T23:08:47.914Z,5.43
2023-04-30T23:11:20.648Z,5.28
2023-04-30T23:13:53.174Z,5.43
2023-04-30T23:16:25.536Z,5.30
2023-04-30T23:18:58.597Z,5.68
2023-04-30T23:21:31.153Z,4.80
2023-04-30T23:24:04.524Z,5.18
2023-04-30T23:26:36.370Z,5.10
2023-04-30T23:29:08.902Z,5.40
2023-04-30T23:31:40.996Z,5.40
2023-04-30T23:34:13.917Z,5.40
2023-04-30T23:36:46.052Z,5.47
2023-04-30T23:39:18.672Z,5.70
2023-04-30T23:41:52.135Z,5.40
2023-04-30T23:44:24.760Z,4.90
2023-04-30T23:46:56.631Z,6.10
2023-04-30T23:49:29.163Z,5.70
2023-04-30T23:52:01.010Z,5.45
2023-04-30T23:54:34.767Z,5.47
2023-04-30T23:57:06.613Z,5.20
2023-04-30T23:59:39.868Z,5.43
